createdAt,value
2022-09-13T00:00:51.981Z,52.10
2022-09-13T00:03:20.153Z,52.10
2022-09-13T00:05:47.253Z,52.00
2022-09-13T00:08:14.801Z,51.90
2022-09-13T00:10:43.851Z,51.90
2022-09-13T00:13:12.262Z,51.80
2022-09-13T00:15:47.246Z,51.70
2022-09-13T00:18:14.762Z,51.70
2022-09-13T00:20:41.521Z,51.70
2022-09-13T00:23:08.601Z,52.30
2022-09-13T00:25:35.997Z,51.60
2022-09-13T00:28:03.685Z,51.50
2022-09-13T00:30:30.513Z,51.50
2022-09-13T00:32:57.342Z,51.50
2022-09-13T00:35:24.361Z,51.50
2022-09-13T00:37:51.350Z,51.50
2022-09-13T00:40:18.289Z,51.60
2022-09-13T00:42:45.138Z,51.60
2022-09-13T00:45:12.162Z,51.60
2022-09-13T00:47:45.325Z,51.60
2022-09-13T00:50:43.117Z,51.60
2022-09-13T00:53:19.268Z,51.60
2022-09-13T00:55:45.960Z,51.80
2022-09-13T00:58:29.301Z,51.70
2022-09-13T01:00:59.866Z,51.80
2022-09-13T01:03:30.912Z,51.70
2022-09-13T01:06:06.336Z,51.80
2022-09-13T01:08:34.212Z,51.60
2022-09-13T01:11:02.774Z,51.60
2022-09-13T01:13:33.062Z,51.60
2022-09-13T01:16:00.692Z,51.60
2022-09-13T01:18:27.566Z,51.60
2022-09-13T01:21:35.200Z,51.70
2022-09-13T01:24:12.607Z,51.70
2022-09-13T01:26:48.832Z,51.70
2022-09-13T01:29:47.496Z,51.80
2022-09-13T01:32:47.790Z,51.80
2022-09-13T01:35:35.490Z,51.90
2022-09-13T01:38:05.002Z,51.90
2022-09-13T01:40:48.298Z,51.90
2022-09-13T01:43:43.152Z,52.00
2022-09-13T01:46:37.108Z,51.90
2022-09-13T01:49:25.843Z,52.00
2022-09-13T01:52:00.633Z,52.00
2022-09-13T01:54:36.321Z,52.00
2022-09-13T01:57:25.024Z,52.00
2022-09-13T02:00:02.751Z,52.70
2022-09-13T02:02:41.780Z,52.10
2022-09-13T02:05:37.563Z,52.10
2022-09-13T02:08:13.333Z,52.00
2022-09-13T02:10:49.361Z,52.00
2022-09-13T02:13:21.585Z,52.00
2022-09-13T02:15:53.754Z,52.00
2022-09-13T02:18:28.622Z,52.00
2022-09-13T02:21:01.139Z,52.00
2022-09-13T02:23:50.363Z,52.00
2022-09-13T02:26:20.293Z,52.10
2022-09-13T02:28:54.414Z,52.00
2022-09-13T02:31:28.504Z,52.00
2022-09-13T02:33:59.847Z,52.00
2022-09-13T02:36:31.418Z,52.10
2022-09-13T02:39:01.919Z,52.10
2022-09-13T02:41:52.950Z,52.10
2022-09-13T02:44:32.420Z,52.10
2022-09-13T02:47:05.002Z,52.10
2022-09-13T02:49:53.107Z,52.10
2022-09-13T02:52:22.650Z,52.10
2022-09-13T02:55:15.407Z,52.10
2022-09-13T02:58:09.510Z,52.10
2022-09-13T03:00:36.698Z,52.20
2022-09-13T03:03:07.161Z,52.20
2022-09-13T03:05:33.967Z,52.90
2022-09-13T03:08:01.514Z,52.30
2022-09-13T03:10:38.798Z,52.30
2022-09-13T03:13:19.955Z,52.40
2022-09-13T03:16:08.075Z,52.30
2022-09-13T03:18:48.422Z,52.40
2022-09-13T03:21:31.119Z,52.40
2022-09-13T03:24:08.402Z,52.40
2022-09-13T03:26:55.431Z,52.30
2022-09-13T03:29:52.270Z,52.30
2022-09-13T03:32:50.523Z,53.00
2022-09-13T03:35:35.120Z,52.30
2022-09-13T03:38:17.705Z,52.20
2022-09-13T03:40:49.966Z,52.20
2022-09-13T03:43:23.104Z,52.20
2022-09-13T03:45:53.794Z,52.10
2022-09-13T03:48:22.410Z,52.00
2022-09-13T03:50:49.829Z,52.00
2022-09-13T03:53:22.842Z,52.00
2022-09-13T03:55:49.787Z,52.00
2022-09-13T03:58:21.587Z,51.90
2022-09-13T04:00:48.726Z,51.90
2022-09-13T04:03:15.850Z,51.90
2022-09-13T04:05:42.714Z,51.90
2022-09-13T04:08:09.867Z,51.80
2022-09-13T04:10:37.650Z,51.80
2022-09-13T04:13:04.547Z,51.80
2022-09-13T04:15:32.389Z,51.80
2022-09-13T04:18:00.111Z,51.80
2022-09-13T04:20:26.999Z,51.80
2022-09-13T04:22:55.365Z,51.80
2022-09-13T04:25:23.254Z,51.80
2022-09-13T04:27:55.464Z,51.80
2022-09-13T04:30:23.326Z,51.80
2022-09-13T04:32:50.499Z,51.80
2022-09-13T04:35:18.046Z,51.70
2022-09-13T04:37:45.302Z,51.80
2022-09-13T04:40:13.163Z,51.80
2022-09-13T04:42:40.808Z,51.90
2022-09-13T04:45:08.249Z,51.80
2022-09-13T04:47:35.001Z,51.80
2022-09-13T04:50:01.832Z,51.80
2022-09-13T04:52:29.190Z,51.80
2022-09-13T04:54:58.498Z,51.90
2022-09-13T04:57:25.353Z,51.90
2022-09-13T04:59:52.082Z,51.90
2022-09-13T05:02:19.079Z,52.00
2022-09-13T05:04:45.915Z,52.00
2022-09-13T05:07:12.765Z,52.10
2022-09-13T05:09:39.561Z,52.10
2022-09-13T05:12:06.489Z,52.20
2022-09-13T05:14:33.237Z,52.20
2022-09-13T05:16:59.960Z,52.20
2022-09-13T05:19:26.680Z,52.20
2022-09-13T05:21:53.435Z,52.30
2022-09-13T05:24:20.233Z,52.30
2022-09-13T05:26:47.178Z,52.30
2022-09-13T05:29:14.001Z,52.30
2022-09-13T05:31:42.641Z,52.30
2022-09-13T05:34:18.762Z,52.30
2022-09-13T05:36:46.954Z,52.30
2022-09-13T05:42:04.917Z,52.40
2022-09-13T05:44:31.653Z,52.40
2022-09-13T05:46:58.381Z,52.40
2022-09-13T05:49:25.149Z,52.30
2022-09-13T05:51:51.921Z,52.40
2022-09-13T05:54:19.260Z,52.40
2022-09-13T05:56:45.998Z,52.40
2022-09-13T05:59:14.317Z,52.40
2022-09-13T06:01:41.389Z,52.30
2022-09-13T06:04:08.222Z,52.30
2022-09-13T06:06:35.661Z,52.30
2022-09-13T06:09:02.669Z,52.30
2022-09-13T06:11:29.649Z,52.30
2022-09-13T06:13:56.465Z,52.30
2022-09-13T06:16:23.521Z,53.00
2022-09-13T06:18:50.645Z,52.30
2022-09-13T06:21:20.605Z,52.40
2022-09-13T06:23:49.614Z,52.40
2022-09-13T06:26:18.569Z,52.40
2022-09-13T06:28:49.668Z,52.40
2022-09-13T06:31:18.350Z,52.50
2022-09-13T06:33:45.739Z,52.40
2022-09-13T06:36:15.460Z,52.40
2022-09-13T06:38:42.573Z,52.40
2022-09-13T06:41:12.872Z,52.50
2022-09-13T06:43:40.582Z,52.50
2022-09-13T06:46:10.136Z,52.60
2022-09-13T06:48:38.920Z,52.70
2022-09-13T06:51:09.308Z,52.80
2022-09-13T06:53:37.441Z,52.80
2022-09-13T06:56:06.936Z,52.80
2022-09-13T06:58:35.337Z,52.90
2022-09-13T07:01:11.676Z,53.00
2022-09-13T07:03:40.682Z,53.10
2022-09-13T07:06:29.440Z,53.20
2022-09-13T07:08:57.995Z,53.20
2022-09-13T07:11:28.818Z,53.30
2022-09-13T07:13:57.862Z,53.30
2022-09-13T07:16:29.949Z,53.40
2022-09-13T07:19:01.846Z,53.40
2022-09-13T07:21:29.219Z,53.50
2022-09-13T07:23:57.067Z,53.50
2022-09-13T07:26:24.910Z,53.60
2022-09-13T07:28:54.772Z,53.60
2022-09-13T07:31:28.782Z,53.70
2022-09-13T07:33:58.116Z,53.80
2022-09-13T07:36:26.220Z,53.80
2022-09-13T07:38:53.061Z,53.90
2022-09-13T07:41:22.291Z,53.90
2022-09-13T07:43:49.373Z,53.90
2022-09-13T07:46:19.013Z,54.00
2022-09-13T07:48:47.109Z,54.10
2022-09-13T07:51:16.792Z,54.20
2022-09-13T07:53:45.369Z,54.30
2022-09-13T07:56:13.696Z,54.40
2022-09-13T07:58:42.346Z,54.40
2022-09-13T08:01:20.332Z,54.50
2022-09-13T08:04:01.324Z,54.60
2022-09-13T08:06:30.317Z,54.70
2022-09-13T08:08:57.940Z,54.70
2022-09-13T08:11:31.101Z,54.80
2022-09-13T08:13:58.333Z,54.90
2022-09-13T08:16:26.386Z,55.00
2022-09-13T08:18:56.414Z,55.10
2022-09-13T08:21:24.470Z,55.20
2022-09-13T08:24:00.338Z,55.30
2022-09-13T08:26:28.597Z,55.40
2022-09-13T08:28:57.392Z,55.60
2022-09-13T08:31:25.361Z,55.70
2022-09-13T08:33:52.564Z,55.70
2022-09-13T08:36:20.774Z,55.80
2022-09-13T08:38:52.419Z,55.80
2022-09-13T08:41:32.513Z,55.80
2022-09-13T08:44:23.249Z,55.90
2022-09-13T08:46:51.115Z,55.90
2022-09-13T08:49:23.650Z,56.00
2022-09-13T08:51:57.159Z,56.00
2022-09-13T08:54:23.977Z,56.10
2022-09-13T08:57:11.501Z,56.10
2022-09-13T09:00:02.239Z,56.10
2022-09-13T09:02:51.843Z,56.10
2022-09-13T09:05:20.463Z,56.20
2022-09-13T09:07:59.050Z,56.20
2022-09-13T09:10:33.511Z,56.30
2022-09-13T09:13:07.623Z,56.40
2022-09-13T09:15:40.458Z,56.40
2022-09-13T09:18:24.490Z,56.40
2022-09-13T09:20:56.700Z,56.50
2022-09-13T09:23:33.788Z,56.40
2022-09-13T09:26:22.207Z,56.50
2022-09-13T09:28:58.663Z,56.60
2022-09-13T09:31:52.955Z,56.60
2022-09-13T09:34:42.523Z,56.60
2022-09-13T09:37:26.303Z,56.70
2022-09-13T09:39:55.383Z,56.70
2022-09-13T09:42:28.553Z,56.70
2022-09-13T09:45:20.716Z,56.70
2022-09-13T09:47:51.020Z,56.80
2022-09-13T09:50:39.644Z,56.90
2022-09-13T09:53:14.882Z,56.90
2022-09-13T09:55:50.370Z,56.90
2022-09-13T09:58:19.001Z,56.80
2022-09-13T10:00:53.750Z,56.80
2022-09-13T10:03:26.074Z,56.80
2022-09-13T10:06:08.435Z,56.80
2022-09-13T10:08:38.140Z,56.80
2022-09-13T10:11:06.655Z,56.80
2022-09-13T10:13:33.926Z,56.80
2022-09-13T10:16:06.309Z,56.70
2022-09-13T10:18:44.884Z,56.80
2022-09-13T10:21:18.198Z,57.50
2022-09-13T10:23:47.090Z,56.80
2022-09-13T10:26:23.380Z,56.80
2022-09-13T10:29:02.981Z,56.90
2022-09-13T10:31:39.953Z,57.00
2022-09-13T10:34:14.229Z,56.90
2022-09-13T10:36:57.886Z,56.90
2022-09-13T10:39:26.171Z,57.00
2022-09-13T10:42:03.477Z,56.90
2022-09-13T10:44:32.855Z,57.00
2022-09-13T10:47:04.176Z,57.00
2022-09-13T10:49:38.199Z,56.90
2022-09-13T10:52:31.511Z,56.90
2022-09-13T10:55:20.378Z,57.00
2022-09-13T10:57:51.075Z,57.00
2022-09-13T11:00:21.010Z,57.10
2022-09-13T11:03:24.279Z,57.10
2022-09-13T11:06:01.013Z,57.10
2022-09-13T11:08:33.722Z,57.10
2022-09-13T11:11:23.465Z,57.20
2022-09-13T11:13:56.247Z,57.20
2022-09-13T11:16:42.760Z,57.30
2022-09-13T11:19:23.505Z,57.30
2022-09-13T11:22:16.725Z,57.30
2022-09-13T11:24:57.609Z,57.30
2022-09-13T11:27:48.699Z,57.30
2022-09-13T11:30:27.777Z,57.40
2022-09-13T11:33:18.080Z,57.40
2022-09-13T11:36:10.332Z,57.50
2022-09-13T11:38:55.145Z,57.60
2022-09-13T11:41:31.066Z,57.60
2022-09-13T11:44:18.391Z,57.70
2022-09-13T11:47:23.456Z,57.80
2022-09-13T11:49:53.000Z,57.80
2022-09-13T11:52:44.448Z,57.80
2022-09-13T11:55:27.926Z,57.80
2022-09-13T11:58:02.052Z,57.80
2022-09-13T12:00:48.412Z,58.00
2022-09-13T12:03:27.947Z,57.90
2022-09-13T12:06:23.194Z,57.90
2022-09-13T12:08:55.619Z,57.90
2022-09-13T12:11:27.639Z,58.00
2022-09-13T12:14:08.037Z,58.00
2022-09-13T12:16:43.085Z,58.00
2022-09-13T12:19:23.786Z,58.00
2022-09-13T12:21:54.015Z,58.00
2022-09-13T12:24:43.741Z,57.90
2022-09-13T12:27:21.882Z,57.90
2022-09-13T12:30:02.423Z,57.80
2022-09-13T12:32:30.824Z,57.80
2022-09-13T12:35:07.782Z,57.80
2022-09-13T12:37:49.634Z,57.70
2022-09-13T12:40:33.703Z,57.60
2022-09-13T12:43:30.578Z,57.60
2022-09-13T12:46:16.056Z,57.70
2022-09-13T12:49:11.591Z,57.70
2022-09-13T12:51:46.976Z,57.60
2022-09-13T12:54:42.915Z,57.60
2022-09-13T12:57:20.714Z,57.70
2022-09-13T12:59:59.284Z,57.80
2022-09-13T13:02:38.892Z,57.90
2022-09-13T13:05:21.811Z,57.90
2022-09-13T13:08:20.675Z,58.00
2022-09-13T13:11:01.273Z,58.20
2022-09-13T13:13:35.653Z,58.10
2022-09-13T13:16:27.170Z,58.10
2022-09-13T13:19:31.076Z,58.10
2022-09-13T13:22:45.134Z,58.20
2022-09-13T13:25:38.898Z,58.30
2022-09-13T13:28:42.850Z,58.50
2022-09-13T13:31:11.097Z,58.50
2022-09-13T13:34:02.000Z,58.60
2022-09-13T13:36:34.567Z,58.70
2022-09-13T13:39:02.471Z,58.60
2022-09-13T13:41:38.342Z,58.60
2022-09-13T13:44:20.450Z,58.70
2022-09-13T13:46:49.415Z,58.80
2022-09-13T13:49:31.395Z,58.80
2022-09-13T13:52:24.465Z,58.80
2022-09-13T13:55:29.974Z,58.80
2022-09-13T13:58:25.232Z,58.80
2022-09-13T14:00:54.052Z,58.90
2022-09-13T14:03:52.783Z,59.00
2022-09-13T14:06:34.966Z,59.10
2022-09-13T14:09:32.979Z,59.30
2022-09-13T14:12:32.563Z,59.30
2022-09-13T14:15:05.429Z,59.40
2022-09-13T14:17:59.463Z,59.50
2022-09-13T14:20:26.675Z,59.60
2022-09-13T14:23:18.810Z,59.70
2022-09-13T14:25:46.379Z,59.80
2022-09-13T14:28:20.470Z,59.80
2022-09-13T14:30:47.490Z,59.80
2022-09-13T14:33:31.380Z,60.00
2022-09-13T14:36:19.212Z,60.10
2022-09-13T14:38:57.303Z,60.20
2022-09-13T14:41:36.878Z,60.20
2022-09-13T14:44:24.967Z,60.20
2022-09-13T14:47:08.350Z,60.30
2022-09-13T14:49:41.415Z,60.40
2022-09-13T14:52:19.856Z,60.40
2022-09-13T14:54:52.763Z,60.40
2022-09-13T14:57:39.015Z,60.50
2022-09-13T15:00:26.862Z,60.50
2022-09-13T15:02:59.857Z,60.50
2022-09-13T15:05:31.163Z,60.50
2022-09-13T15:07:58.098Z,60.50
2022-09-13T15:10:28.247Z,60.50
2022-09-13T15:12:58.022Z,60.50
2022-09-13T15:15:32.293Z,60.50
2022-09-13T15:18:03.822Z,60.60
2022-09-13T15:20:47.364Z,60.60
2022-09-13T15:23:16.794Z,60.70
2022-09-13T15:25:51.478Z,60.70
2022-09-13T15:28:23.778Z,60.70
2022-09-13T15:30:51.705Z,60.70
2022-09-13T15:33:27.432Z,60.70
2022-09-13T15:36:14.572Z,60.70
2022-09-13T15:39:00.399Z,60.70
2022-09-13T15:41:32.936Z,60.70
2022-09-13T15:44:01.301Z,60.70
2022-09-13T15:46:28.839Z,60.80
2022-09-13T15:49:01.509Z,60.80
2022-09-13T15:51:28.623Z,60.80
2022-09-13T15:53:55.532Z,60.90
2022-09-13T15:56:32.262Z,60.90
2022-09-13T15:58:59.366Z,60.80
2022-09-13T16:01:27.658Z,60.90
2022-09-13T16:03:54.624Z,61.00
2022-09-13T16:06:24.575Z,60.90
2022-09-13T16:08:51.687Z,61.00
2022-09-13T16:11:18.554Z,61.00
2022-09-13T16:13:45.330Z,61.10
2022-09-13T16:16:15.258Z,61.10
2022-09-13T16:18:45.297Z,61.10
2022-09-13T16:21:12.769Z,61.20
2022-09-13T16:23:39.511Z,61.20
2022-09-13T16:26:06.487Z,61.30
2022-09-13T16:28:33.361Z,61.30
2022-09-13T16:31:00.171Z,61.40
2022-09-13T16:33:26.982Z,61.50
2022-09-13T16:35:53.897Z,61.50
2022-09-13T16:38:20.653Z,61.50
2022-09-13T16:40:49.048Z,61.60
2022-09-13T16:43:16.266Z,61.70
2022-09-13T16:45:44.810Z,62.00
2022-09-13T16:48:12.030Z,61.70
2022-09-13T16:50:42.031Z,61.80
2022-09-13T16:53:09.307Z,61.80
2022-09-13T16:55:36.596Z,61.80
2022-09-13T16:58:03.625Z,61.90
2022-09-13T17:00:30.474Z,61.90
2022-09-13T17:02:57.478Z,61.90
2022-09-13T17:05:25.126Z,61.80
2022-09-13T17:07:53.036Z,61.80
2022-09-13T17:10:20.919Z,61.80
2022-09-13T17:12:47.915Z,61.70
2022-09-13T17:15:14.728Z,61.70
2022-09-13T17:17:41.518Z,61.70
2022-09-13T17:20:11.949Z,61.70
2022-09-13T17:22:39.509Z,61.70
2022-09-13T17:25:10.051Z,61.70
2022-09-13T17:27:36.815Z,61.70
2022-09-13T17:30:05.135Z,61.70
2022-09-13T17:32:32.345Z,61.70
2022-09-13T17:34:59.223Z,61.80
2022-09-13T17:37:26.091Z,61.90
2022-09-13T17:39:52.871Z,62.10
2022-09-13T17:42:23.102Z,62.10
2022-09-13T17:44:50.947Z,62.20
2022-09-13T17:47:17.755Z,62.20
2022-09-13T17:49:46.560Z,62.30
2022-09-13T17:52:13.571Z,62.40
2022-09-13T17:54:40.475Z,62.50
2022-09-13T17:57:07.371Z,62.50
2022-09-13T17:59:34.315Z,62.60
2022-09-13T18:02:01.329Z,62.60
2022-09-13T18:04:28.457Z,62.60
2022-09-13T18:06:55.271Z,62.60
2022-09-13T18:09:22.468Z,62.60
2022-09-13T18:11:49.879Z,62.70
2022-09-13T18:14:18.253Z,62.70
2022-09-13T18:16:45.931Z,62.80
2022-09-13T18:19:13.153Z,62.90
2022-09-13T18:21:40.481Z,63.00
2022-09-13T18:24:07.776Z,63.00
2022-09-13T18:26:34.926Z,63.00
2022-09-13T18:29:05.096Z,63.20
2022-09-13T18:31:34.634Z,63.10
2022-09-13T18:34:14.057Z,63.10
2022-09-13T18:36:45.336Z,63.10
2022-09-13T18:39:20.544Z,63.10
2022-09-13T18:41:48.398Z,63.10
2022-09-13T18:44:16.863Z,63.10
2022-09-13T18:46:44.357Z,63.10
2022-09-13T18:49:11.411Z,63.20
2022-09-13T18:51:39.663Z,63.20
2022-09-13T18:54:07.984Z,63.30
2022-09-13T18:56:35.805Z,63.20
2022-09-13T18:59:05.064Z,63.30
2022-09-13T19:01:34.379Z,63.30
2022-09-13T19:04:11.961Z,63.30
2022-09-13T19:06:42.038Z,63.30
2022-09-13T19:09:10.165Z,63.50
2022-09-13T19:11:46.763Z,63.50
2022-09-13T19:14:20.069Z,63.60
2022-09-13T19:16:47.352Z,63.60
2022-09-13T19:19:14.714Z,63.70
2022-09-13T19:21:42.301Z,63.80
2022-09-13T19:24:17.842Z,63.90
2022-09-13T19:26:47.186Z,63.90
2022-09-13T19:29:16.301Z,64.00
2022-09-13T19:31:49.634Z,64.00
2022-09-13T19:34:18.654Z,64.00
2022-09-13T19:36:46.309Z,64.10
2022-09-13T19:39:13.637Z,64.10
2022-09-13T19:41:41.362Z,64.10
2022-09-13T19:44:08.794Z,64.10
2022-09-13T19:46:38.246Z,64.10
2022-09-13T19:49:06.035Z,64.10
2022-09-13T19:51:35.913Z,64.10
2022-09-13T19:54:03.946Z,64.10
2022-09-13T19:56:33.371Z,64.20
2022-09-13T19:59:01.157Z,64.30
2022-09-13T20:01:31.378Z,64.20
2022-09-13T20:04:00.324Z,64.30
2022-09-13T20:06:28.664Z,64.40
2022-09-13T20:08:59.545Z,64.40
2022-09-13T20:11:28.465Z,64.50
2022-09-13T20:13:59.385Z,64.50
2022-09-13T20:16:34.677Z,64.60
2022-09-13T20:19:02.399Z,64.60
2022-09-13T20:21:32.524Z,64.70
2022-09-13T20:24:02.941Z,64.70
2022-09-13T20:26:32.822Z,64.70
2022-09-13T20:29:02.409Z,64.70
2022-09-13T20:31:31.167Z,64.70
2022-09-13T20:34:01.649Z,64.60
2022-09-13T20:36:30.894Z,64.60
2022-09-13T20:39:02.964Z,64.60
2022-09-13T20:41:31.267Z,64.60
2022-09-13T20:43:59.784Z,64.60
2022-09-13T20:46:27.287Z,64.60
2022-09-13T20:48:54.121Z,64.60
2022-09-13T20:51:25.254Z,64.60
2022-09-13T20:53:57.325Z,64.60
2022-09-13T20:56:24.746Z,64.50
2022-09-13T20:58:57.266Z,64.50
2022-09-13T21:01:25.093Z,64.50
2022-09-13T21:03:53.788Z,64.40
2022-09-13T21:06:24.070Z,64.40
2022-09-13T21:08:52.093Z,64.40
2022-09-13T21:11:24.430Z,64.30
2022-09-13T21:13:53.600Z,64.30
2022-09-13T21:16:23.161Z,64.30
2022-09-13T21:18:51.304Z,64.30
2022-09-13T21:21:20.455Z,64.30
2022-09-13T21:23:47.853Z,64.30
2022-09-13T21:26:17.222Z,64.20
2022-09-13T21:28:44.612Z,64.30
2022-09-13T21:31:18.311Z,64.30
2022-09-13T21:33:48.213Z,64.30
2022-09-13T21:36:15.162Z,64.20
2022-09-13T21:38:41.902Z,64.30
2022-09-13T21:41:14.094Z,64.20
2022-09-13T21:43:41.929Z,65.00
2022-09-13T21:46:17.602Z,64.30
2022-09-13T21:48:49.802Z,64.40
2022-09-13T21:51:24.986Z,64.40
2022-09-13T21:53:58.170Z,64.40
2022-09-13T21:56:30.191Z,64.50
2022-09-13T21:59:02.211Z,64.50
2022-09-13T22:01:31.722Z,64.50
2022-09-13T22:03:59.320Z,64.40
2022-09-13T22:06:31.387Z,64.40
2022-09-13T22:09:02.223Z,64.40
2022-09-13T22:11:31.977Z,64.40
2022-09-13T22:13:59.759Z,64.40
2022-09-13T22:16:33.078Z,64.50
2022-09-13T22:19:24.586Z,64.50
2022-09-13T22:21:55.245Z,64.60
2022-09-13T22:24:23.702Z,64.60
2022-09-13T22:26:52.396Z,64.50
2022-09-13T22:29:20.551Z,64.60
2022-09-13T22:31:49.774Z,64.60
2022-09-13T22:34:19.824Z,64.60
2022-09-13T22:36:46.603Z,64.60
2022-09-13T22:39:15.425Z,64.60
2022-09-13T22:41:42.715Z,64.50
2022-09-13T22:44:09.806Z,64.50
2022-09-13T22:46:39.222Z,64.50
2022-09-13T22:49:06.407Z,64.50
2022-09-13T22:51:34.015Z,64.40
2022-09-13T22:54:06.303Z,64.40
2022-09-13T22:56:35.488Z,64.30
2022-09-13T22:59:07.318Z,64.30
2022-09-13T23:01:35.126Z,64.30
2022-09-13T23:04:02.666Z,64.20
2022-09-13T23:06:30.465Z,64.20
2022-09-13T23:09:00.051Z,64.10
2022-09-13T23:11:33.101Z,64.10
2022-09-13T23:14:04.195Z,64.00
2022-09-13T23:16:34.631Z,64.00
2022-09-13T23:19:01.772Z,64.00
2022-09-13T23:21:33.450Z,64.00
2022-09-13T23:24:01.451Z,64.00
2022-09-13T23:26:29.177Z,64.00
2022-09-13T23:29:02.184Z,64.00
2022-09-13T23:31:31.677Z,64.00
2022-09-13T23:34:01.925Z,64.00
2022-09-13T23:36:38.858Z,64.00
2022-09-13T23:39:11.299Z,64.00
2022-09-13T23:41:38.836Z,63.90
2022-09-13T23:44:05.773Z,64.00
2022-09-13T23:46:32.546Z,63.90
2022-09-13T23:48:59.515Z,63.90
2022-09-13T23:51:27.561Z,63.90
2022-09-13T23:53:56.822Z,63.90
2022-09-13T23:56:26.443Z,63.90
2022-09-13T23:58:55.085Z,64.00
